createdAt,value
2023-04-23T00:01:07.494Z,100834.69
2023-04-23T00:03:44.872Z,100834.70
2023-04-23T00:06:18.990Z,100833.49
2023-04-23T00:08:53.510Z,100836.03
2023-04-23T00:11:26.574Z,100839.58
2023-04-23T00:13:59.785Z,100834.02
2023-04-23T00:16:33.435Z,100837.51
2023-04-23T00:19:05.842Z,100837.14
2023-04-23T00:21:38.263Z,100842.02
2023-04-23T00:24:10.911Z,100842.92
2023-04-23T00:26:43.317Z,100843.61
2023-04-23T00:29:15.756Z,100848.63
2023-04-23T00:31:48.283Z,100848.70
2023-04-23T00:34:20.735Z,100847.34
2023-04-23T00:36:53.073Z,100847.40
2023-04-23T00:39:25.612Z,100849.48
2023-04-23T00:41:59.239Z,100852.50
2023-04-23T00:44:31.848Z,100852.35
2023-04-23T00:47:04.513Z,100855.77
2023-04-23T00:49:37.582Z,100853.70
2023-04-23T00:52:09.990Z,100854.06
2023-04-23T00:54:42.715Z,100854.36
2023-04-23T00:57:15.643Z,100854.88
2023-04-23T00:59:48.314Z,100853.52
2023-04-23T01:02:23.048Z,100854.42
2023-04-23T01:04:56.029Z,100854.95
2023-04-23T01:07:29.246Z,100855.54
2023-04-23T01:10:01.614Z,100853.71
2023-04-23T01:12:34.870Z,100851.17
2023-04-23T01:15:09.281Z,100855.23
2023-04-23T01:17:41.707Z,100854.16
2023-04-23T01:20:14.617Z,100851.83
2023-04-23T01:22:47.085Z,100851.35
2023-04-23T01:25:19.556Z,100851.83
2023-04-23T01:27:51.992Z,100846.84
2023-04-23T01:30:25.080Z,100849.17
2023-04-23T01:32:59.615Z,100847.98
2023-04-23T01:35:32.205Z,100847.35
2023-04-23T01:38:07.157Z,100847.35
2023-04-23T01:40:39.814Z,100845.30
2023-04-23T01:43:12.167Z,100837.32
2023-04-23T01:45:44.854Z,100843.39
2023-04-23T01:48:17.219Z,100843.36
2023-04-23T01:50:49.745Z,100843.89
2023-04-23T01:53:22.099Z,100837.48
2023-04-23T01:55:57.133Z,100835.70
2023-04-23T01:58:29.598Z,100829.92
2023-04-23T02:01:01.930Z,100832.13
2023-04-23T02:03:35.171Z,100835.66
2023-04-23T02:06:08.441Z,100834.54
2023-04-23T02:08:41.342Z,100832.29
2023-04-23T02:11:13.652Z,100829.02
2023-04-23T02:13:46.060Z,100834.59
2023-04-23T02:16:19.871Z,100836.02
2023-04-23T02:18:52.393Z,100837.96
2023-04-23T02:21:26.458Z,100838.36
2023-04-23T02:23:59.037Z,100835.05
2023-04-23T02:26:31.501Z,100832.00
2023-04-23T02:29:03.995Z,100832.86
2023-04-23T02:31:36.537Z,100828.27
2023-04-23T02:34:08.968Z,100829.27
2023-04-23T02:36:41.382Z,100827.10
2023-04-23T02:39:13.712Z,100823.40
2023-04-23T02:41:46.158Z,100817.58
2023-04-23T02:44:18.537Z,100817.21
2023-04-23T02:46:50.942Z,100816.94
2023-04-23T02:49:23.359Z,100819.77
2023-04-23T02:51:55.830Z,100822.38
2023-04-23T02:54:28.199Z,100821.75
2023-04-23T02:57:01.933Z,100821.77
2023-04-23T02:59:34.397Z,100823.48
2023-04-23T03:02:06.790Z,100824.73
2023-04-23T03:04:40.027Z,100824.26
2023-04-23T03:07:13.477Z,100824.53
2023-04-23T03:09:45.812Z,100828.16
2023-04-23T03:12:18.501Z,100827.11
2023-04-23T03:14:50.980Z,100825.21
2023-04-23T03:17:23.374Z,100831.30
2023-04-23T03:19:55.938Z,100832.61
2023-04-23T03:22:28.309Z,100837.16
2023-04-23T03:25:00.823Z,100844.23
2023-04-23T03:27:33.099Z,100845.05
2023-04-23T03:30:08.175Z,100845.09
2023-04-23T03:32:41.130Z,100849.61
2023-04-23T03:35:13.691Z,100850.81
2023-04-23T03:37:46.037Z,100852.06
2023-04-23T03:40:18.472Z,100853.42
2023-04-23T03:42:50.971Z,100854.38
2023-04-23T03:45:23.446Z,100853.30
2023-04-23T03:47:56.025Z,100853.77
2023-04-23T03:50:28.250Z,100858.41
2023-04-23T03:53:00.645Z,100860.41
2023-04-23T03:55:33.036Z,100861.14
2023-04-23T03:58:05.805Z,100864.76
2023-04-23T04:00:38.147Z,100864.14
2023-04-23T04:03:10.599Z,100865.70
2023-04-23T04:05:43.279Z,100867.63
2023-04-23T04:08:15.571Z,100865.52
2023-04-23T04:10:48.168Z,100867.77
2023-04-23T04:13:20.531Z,100867.41
2023-04-23T04:15:52.957Z,100868.41
2023-04-23T04:18:26.007Z,100868.61
2023-04-23T04:20:58.409Z,100873.55
2023-04-23T04:23:31.242Z,100877.02
2023-04-23T04:26:05.004Z,100871.50
2023-04-23T04:28:37.665Z,100869.66
2023-04-23T04:31:10.529Z,100876.69
2023-04-23T04:33:43.442Z,100876.80
2023-04-23T04:36:15.710Z,100877.34
2023-04-23T04:38:48.077Z,100877.23
2023-04-23T04:41:21.876Z,100880.59
2023-04-23T04:43:54.762Z,100882.84
2023-04-23T04:46:29.481Z,100887.74
2023-04-23T04:49:01.959Z,100890.23
2023-04-23T04:51:34.335Z,100892.77
2023-04-23T04:54:07.436Z,100892.45
2023-04-23T04:56:39.778Z,100888.77
2023-04-23T04:59:12.226Z,100887.16
2023-04-23T05:01:45.581Z,100890.47
2023-04-23T05:04:18.631Z,100889.63
2023-04-23T05:06:51.241Z,100891.60
2023-04-23T05:09:23.611Z,100893.11
2023-04-23T05:11:56.003Z,100897.12
2023-04-23T05:14:29.077Z,100899.82
2023-04-23T05:17:01.492Z,100902.88
2023-04-23T05:19:33.955Z,100900.08
2023-04-23T05:22:06.514Z,100900.41
2023-04-23T05:24:39.103Z,100904.02
2023-04-23T05:27:11.561Z,100904.25
2023-04-23T05:29:43.960Z,100908.88
2023-04-23T05:32:16.525Z,100909.75
2023-04-23T05:34:48.943Z,100911.04
2023-04-23T05:37:21.178Z,100912.71
2023-04-23T05:39:53.495Z,100914.60
2023-04-23T05:42:26.190Z,100913.94
2023-04-23T05:44:58.555Z,100916.47
2023-04-23T05:47:31.895Z,100920.26
2023-04-23T05:50:04.311Z,100920.90
2023-04-23T05:52:37.667Z,100923.98
2023-04-23T05:55:12.311Z,100927.11
2023-04-23T05:57:44.810Z,100923.42
2023-04-23T06:00:18.210Z,100919.41
2023-04-23T06:02:50.662Z,100922.50
2023-04-23T06:05:23.594Z,100919.83
2023-04-23T06:07:56.350Z,100917.81
2023-04-23T06:10:28.865Z,100912.77
2023-04-23T06:13:01.331Z,100915.23
2023-04-23T06:15:36.730Z,100916.65
2023-04-23T06:18:10.598Z,100920.95
2023-04-23T06:20:43.100Z,100920.08
2023-04-23T06:23:15.989Z,100920.36
2023-04-23T06:25:48.389Z,100918.93
2023-04-23T06:28:20.800Z,100923.04
2023-04-23T06:30:53.681Z,100918.06
2023-04-23T06:33:25.984Z,100918.73
2023-04-23T06:35:58.626Z,100911.96
2023-04-23T06:38:31.010Z,100915.85
2023-04-23T06:41:04.308Z,100913.97
2023-04-23T06:43:36.667Z,100913.00
2023-04-23T06:46:09.229Z,100912.45
2023-04-23T06:48:41.676Z,100911.09
2023-04-23T06:51:14.179Z,100914.35
2023-04-23T06:53:46.463Z,100912.86
2023-04-23T06:56:18.889Z,100917.55
2023-04-23T06:58:51.345Z,100916.27
2023-04-23T07:01:23.808Z,100914.55
2023-04-23T07:03:56.181Z,100911.40
2023-04-23T07:06:29.203Z,100912.84
2023-04-23T07:09:01.452Z,100913.88
2023-04-23T07:11:35.247Z,100910.55
2023-04-23T07:14:07.758Z,100909.41
2023-04-23T07:16:40.373Z,100907.70
2023-04-23T07:19:12.815Z,100909.70
2023-04-23T07:21:45.294Z,100910.23
2023-04-23T07:24:19.002Z,100911.11
2023-04-23T07:26:51.426Z,100912.13
2023-04-23T07:29:23.993Z,100912.00
2023-04-23T07:31:56.511Z,100911.27
2023-04-23T07:34:28.908Z,100910.83
2023-04-23T07:37:01.201Z,100911.96
2023-04-23T07:39:33.688Z,100914.83
2023-04-23T07:42:06.212Z,100913.55
2023-04-23T07:44:38.652Z,100909.91
2023-04-23T07:47:11.507Z,100914.13
2023-04-23T07:49:43.989Z,100912.91
2023-04-23T07:52:17.515Z,100909.52
2023-04-23T07:54:50.373Z,100904.29
2023-04-23T07:57:22.769Z,100908.19
2023-04-23T07:59:55.195Z,100905.73
2023-04-23T08:02:28.759Z,100904.85
2023-04-23T08:05:01.484Z,100903.41
2023-04-23T08:07:34.356Z,100904.63
2023-04-23T08:10:07.763Z,100903.89
2023-04-23T08:12:40.069Z,100909.33
2023-04-23T08:15:14.444Z,100906.60
2023-04-23T08:17:47.115Z,100911.35
2023-04-23T08:20:19.748Z,100909.95
2023-04-23T08:22:53.801Z,100902.27
2023-04-23T08:25:26.752Z,100906.67
2023-04-23T08:27:59.219Z,100906.52
2023-04-23T08:30:31.578Z,100906.41
2023-04-23T08:33:04.016Z,100908.42
2023-04-23T08:35:36.535Z,100905.00
2023-04-23T08:38:09.501Z,100900.80
2023-04-23T08:40:43.960Z,100897.61
2023-04-23T08:43:20.930Z,100898.84
2023-04-23T08:45:54.494Z,100896.48
2023-04-23T08:48:26.900Z,100899.86
2023-04-23T08:51:00.845Z,100893.32
2023-04-23T08:53:33.911Z,100893.55
2023-04-23T08:56:06.711Z,100891.28
2023-04-23T08:58:39.157Z,100891.42
2023-04-23T09:01:12.258Z,100893.23
2023-04-23T09:03:46.216Z,100892.26
2023-04-23T09:06:18.886Z,100894.05
2023-04-23T09:08:53.215Z,100893.40
2023-04-23T09:11:28.527Z,100890.67
2023-04-23T09:14:01.334Z,100891.51
2023-04-23T09:16:34.173Z,100884.71
2023-04-23T09:19:06.842Z,100886.29
2023-04-23T09:21:40.622Z,100882.39
2023-04-23T09:24:14.944Z,100878.59
2023-04-23T09:26:51.511Z,100877.64
2023-04-23T09:29:25.026Z,100872.98
2023-04-23T09:32:07.856Z,100871.39
2023-04-23T09:34:41.409Z,100868.74
2023-04-23T09:37:16.226Z,100868.95
2023-04-23T09:39:48.710Z,100864.34
2023-04-23T09:42:24.763Z,100858.41
2023-04-23T09:45:04.503Z,100858.80
2023-04-23T09:47:39.870Z,100854.75
2023-04-23T09:50:13.186Z,100859.05
2023-04-23T09:52:45.964Z,100856.61
2023-04-23T09:55:28.348Z,100849.95
2023-04-23T09:58:01.612Z,100850.29
2023-04-23T10:00:38.267Z,100846.36
2023-04-23T10:03:12.339Z,100847.98
2023-04-23T10:06:00.518Z,100850.75
2023-04-23T10:08:35.214Z,100840.33
2023-04-23T10:11:19.953Z,100836.81
2023-04-23T10:13:54.935Z,100833.09
2023-04-23T10:16:33.000Z,100833.02
2023-04-23T10:19:17.417Z,100828.14
2023-04-23T10:21:56.213Z,100822.50
2023-04-23T10:24:35.640Z,100822.14
2023-04-23T10:27:24.918Z,100818.16
2023-04-23T10:30:04.131Z,100819.22
2023-04-23T10:32:38.851Z,100813.55
2023-04-23T10:35:12.624Z,100810.64
2023-04-23T10:37:46.581Z,100807.64
2023-04-23T10:40:25.848Z,100805.72
2023-04-23T10:42:58.918Z,100798.40
2023-04-23T10:45:33.530Z,100797.30
2023-04-23T10:48:08.744Z,100795.48
2023-04-23T10:50:58.358Z,100800.14
2023-04-23T10:53:37.331Z,100792.41
2023-04-23T10:56:10.708Z,100786.33
2023-04-23T10:58:55.315Z,100782.44
2023-04-23T11:01:31.917Z,100782.84
2023-04-23T11:04:24.385Z,100777.54
2023-04-23T11:06:59.254Z,100772.20
2023-04-23T11:09:43.287Z,100772.91
2023-04-23T11:12:31.479Z,100773.54
2023-04-23T11:15:17.042Z,100767.61
2023-04-23T11:18:05.039Z,100765.23
2023-04-23T11:20:38.826Z,100760.90
2023-04-23T11:23:30.495Z,100756.79
2023-04-23T11:26:04.392Z,100760.55
2023-04-23T11:28:38.905Z,100755.39
2023-04-23T11:31:12.583Z,100753.55
2023-04-23T11:33:44.998Z,100751.23
2023-04-23T11:36:17.551Z,100749.09
2023-04-23T11:38:50.099Z,100742.91
2023-04-23T11:41:27.066Z,100743.01
2023-04-23T11:43:59.882Z,100746.95
2023-04-23T11:46:32.305Z,100744.37
2023-04-23T11:49:04.822Z,100746.85
2023-04-23T11:51:42.281Z,100744.30
2023-04-23T11:54:15.118Z,100744.17
2023-04-23T11:56:47.436Z,100744.66
2023-04-23T11:59:19.753Z,100745.16
2023-04-23T12:01:55.813Z,100744.73
2023-04-23T12:04:30.384Z,100738.73
2023-04-23T12:07:10.189Z,100732.17
2023-04-23T12:09:51.802Z,100728.20
2023-04-23T12:12:24.134Z,100728.29
2023-04-23T12:15:07.231Z,100725.65
2023-04-23T12:17:39.671Z,100724.27
2023-04-23T12:20:21.227Z,100718.92
2023-04-23T12:22:53.723Z,100718.88
2023-04-23T12:25:27.138Z,100715.39
2023-04-23T12:28:02.719Z,100708.43
2023-04-23T12:30:33.923Z,100708.09
2023-04-23T12:33:09.506Z,100701.55
2023-04-23T12:35:43.414Z,100698.09
2023-04-23T12:38:26.895Z,100701.95
2023-04-23T12:41:01.941Z,100698.63
2023-04-23T12:43:34.458Z,100689.23
2023-04-23T12:46:07.062Z,100697.27
2023-04-23T12:48:39.401Z,100698.52
2023-04-23T12:51:11.906Z,100692.00
2023-04-23T12:53:44.428Z,100686.67
2023-04-23T12:56:16.728Z,100690.20
2023-04-23T12:58:49.376Z,100678.83
2023-04-23T13:01:21.907Z,100679.58
2023-04-23T13:03:54.429Z,100675.05
2023-04-23T13:06:27.271Z,100678.06
2023-04-23T13:09:02.372Z,100681.21
2023-04-23T13:11:34.811Z,100682.91
2023-04-23T13:14:07.718Z,100685.14
2023-04-23T13:16:40.338Z,100675.20
2023-04-23T13:19:13.470Z,100670.89
2023-04-23T13:21:46.149Z,100676.02
2023-04-23T13:24:18.628Z,100676.23
2023-04-23T13:26:51.131Z,100672.77
2023-04-23T13:29:23.580Z,100672.27
2023-04-23T13:31:56.076Z,100671.91
2023-04-23T13:34:28.553Z,100674.44
2023-04-23T13:37:05.411Z,100672.25
2023-04-23T13:39:39.935Z,100669.27
2023-04-23T13:42:13.841Z,100666.26
2023-04-23T13:44:46.150Z,100663.63
2023-04-23T13:47:18.509Z,100662.29
2023-04-23T13:49:51.546Z,100661.71
2023-04-23T13:52:23.929Z,100661.56
2023-04-23T13:54:57.314Z,100658.85
2023-04-23T13:57:29.855Z,100653.82
2023-04-23T14:00:02.536Z,100657.24
2023-04-23T14:02:35.005Z,100655.52
2023-04-23T14:05:09.101Z,100654.20
2023-04-23T14:07:41.833Z,100650.52
2023-04-23T14:10:15.251Z,100651.30
2023-04-23T14:12:48.060Z,100651.23
2023-04-23T14:15:20.533Z,100657.67
2023-04-23T14:17:53.221Z,100662.49
2023-04-23T14:20:25.953Z,100663.98
2023-04-23T14:23:03.173Z,100665.98
2023-04-23T14:25:47.890Z,100670.25
2023-04-23T14:28:34.929Z,100673.52
2023-04-23T14:31:07.499Z,100677.64
2023-04-23T14:33:39.914Z,100678.86
2023-04-23T14:36:12.531Z,100681.65
2023-04-23T14:38:44.950Z,100685.03
2023-04-23T14:41:17.348Z,100687.20
2023-04-23T14:43:49.761Z,100685.98
2023-04-23T14:46:22.167Z,100689.47
2023-04-23T14:48:54.554Z,100689.93
2023-04-23T14:51:27.452Z,100688.37
2023-04-23T14:53:59.801Z,100689.90
2023-04-23T14:56:32.193Z,100686.31
2023-04-23T14:59:04.884Z,100680.13
2023-04-23T15:01:37.412Z,100679.99
2023-04-23T15:04:11.282Z,100673.33
2023-04-23T15:06:43.948Z,100666.38
2023-04-23T15:09:17.219Z,100666.10
2023-04-23T15:11:49.942Z,100665.45
2023-04-23T15:14:33.038Z,100662.80
2023-04-23T15:17:06.182Z,100664.43
2023-04-23T15:19:38.718Z,100659.75
2023-04-23T15:22:11.121Z,100656.34
2023-04-23T15:24:43.496Z,100656.11
2023-04-23T15:27:16.257Z,100660.59
2023-04-23T15:29:49.476Z,100660.39
2023-04-23T15:32:21.930Z,100654.33
2023-04-23T15:34:54.612Z,100649.26
2023-04-23T15:37:28.185Z,100650.49
2023-04-23T15:40:01.361Z,100652.05
2023-04-23T15:42:33.933Z,100646.96
2023-04-23T15:45:07.188Z,100651.27
2023-04-23T15:47:40.095Z,100647.27
2023-04-23T15:50:14.583Z,100646.08
2023-04-23T15:52:48.100Z,100644.85
2023-04-23T15:55:22.378Z,100641.29
2023-04-23T15:57:54.722Z,100635.13
2023-04-23T16:00:27.063Z,100631.55
2023-04-23T16:03:01.178Z,100634.44
2023-04-23T16:05:33.833Z,100631.89
2023-04-23T16:08:06.381Z,100631.23
2023-04-23T16:10:40.394Z,100631.88
2023-04-23T16:13:12.947Z,100630.97
2023-04-23T16:15:45.450Z,100633.11
2023-04-23T16:18:17.889Z,100634.89
2023-04-23T16:20:50.543Z,100634.38
2023-04-23T16:23:23.012Z,100635.73
2023-04-23T16:25:56.826Z,100635.56
2023-04-23T16:28:29.476Z,100637.48
2023-04-23T16:31:01.936Z,100640.85
2023-04-23T16:33:34.276Z,100639.19
2023-04-23T16:36:07.449Z,100640.40
2023-04-23T16:38:39.737Z,100643.00
2023-04-23T16:41:12.150Z,100641.05
2023-04-23T16:43:44.456Z,100639.11
2023-04-23T16:46:17.058Z,100638.71
2023-04-23T16:48:49.522Z,100637.26
2023-04-23T16:51:21.886Z,100635.98
2023-04-23T16:53:56.168Z,100638.02
2023-04-23T16:56:28.880Z,100637.63
2023-04-23T16:59:01.981Z,100638.17
2023-04-23T17:01:34.541Z,100642.11
2023-04-23T17:04:07.156Z,100640.69
2023-04-23T17:06:39.867Z,100642.35
2023-04-23T17:09:12.305Z,100642.14
2023-04-23T17:11:44.577Z,100642.75
2023-04-23T17:14:16.973Z,100644.10
2023-04-23T17:16:49.405Z,100647.07
2023-04-23T17:19:21.734Z,100646.05
2023-04-23T17:21:54.168Z,100657.38
2023-04-23T17:24:26.702Z,100658.80
2023-04-23T17:26:59.293Z,100661.61
2023-04-23T17:29:31.630Z,100665.50
2023-04-23T17:32:04.568Z,100664.63
2023-04-23T17:34:38.028Z,100665.52
2023-04-23T17:37:10.553Z,100666.90
2023-04-23T17:39:42.897Z,100670.65
2023-04-23T17:42:15.279Z,100674.65
2023-04-23T17:44:47.621Z,100679.87
2023-04-23T17:47:20.035Z,100681.09
2023-04-23T17:49:52.571Z,100681.41
2023-04-23T17:52:24.912Z,100682.78
2023-04-23T17:54:57.825Z,100681.99
2023-04-23T17:57:30.170Z,100683.77
2023-04-23T18:00:09.745Z,100685.35
2023-04-23T18:02:42.544Z,100690.36
2023-04-23T18:05:16.216Z,100696.08
2023-04-23T18:07:48.645Z,100696.44
2023-04-23T18:10:21.005Z,100699.91
2023-04-23T18:12:53.651Z,100702.73
2023-04-23T18:15:29.009Z,100702.34
2023-04-23T18:18:01.567Z,100702.67
2023-04-23T18:20:35.678Z,100703.91
2023-04-23T18:23:08.914Z,100713.66
2023-04-23T18:25:44.185Z,100716.33
2023-04-23T18:28:16.545Z,100719.77
2023-04-23T18:30:48.974Z,100725.20
2023-04-23T18:33:32.982Z,100730.59
2023-04-23T18:36:14.990Z,100727.03
2023-04-23T18:38:47.702Z,100728.44
2023-04-23T18:41:20.055Z,100717.64
2023-04-23T18:43:53.070Z,100703.29
2023-04-23T18:46:25.473Z,100707.77
2023-04-23T18:49:05.882Z,100711.29
2023-04-23T18:51:46.099Z,100711.51
2023-04-23T18:54:18.384Z,100713.27
2023-04-23T18:56:51.224Z,100714.13
2023-04-23T18:59:24.022Z,100711.94
2023-04-23T19:01:56.983Z,100713.30
2023-04-23T19:04:30.041Z,100711.83
2023-04-23T19:07:02.911Z,100709.44
2023-04-23T19:09:35.376Z,100712.15
2023-04-23T19:12:08.305Z,100706.64
2023-04-23T19:14:40.764Z,100711.39
2023-04-23T19:17:13.049Z,100711.33
2023-04-23T19:19:48.377Z,100710.45
2023-04-23T19:22:22.281Z,100713.52
2023-04-23T19:24:54.681Z,100712.21
2023-04-23T19:27:27.055Z,100713.08
2023-04-23T19:30:01.053Z,100706.15
2023-04-23T19:32:34.394Z,100704.60
2023-04-23T19:35:10.553Z,100699.73
2023-04-23T19:37:42.955Z,100698.55
2023-04-23T19:40:16.473Z,100695.45
2023-04-23T19:42:48.927Z,100691.60
2023-04-23T19:45:22.174Z,100694.14
2023-04-23T19:47:54.745Z,100694.98
2023-04-23T19:50:28.035Z,100692.96
2023-04-23T19:53:00.689Z,100696.48
2023-04-23T19:55:33.068Z,100690.95
2023-04-23T19:58:06.828Z,100693.65
2023-04-23T20:00:41.553Z,100697.02
2023-04-23T20:03:14.585Z,100695.64
2023-04-23T20:05:48.425Z,100694.31
2023-04-23T20:08:29.494Z,100688.86
2023-04-23T20:11:01.847Z,100686.58
2023-04-23T20:13:34.324Z,100677.99
2023-04-23T20:16:08.327Z,100680.11
2023-04-23T20:18:40.813Z,100675.13
2023-04-23T20:21:13.220Z,100670.09
2023-04-23T20:23:45.729Z,100669.50
2023-04-23T20:26:18.100Z,100671.11
2023-04-23T20:28:50.901Z,100668.05
2023-04-23T20:31:23.663Z,100666.70
2023-04-23T20:33:56.572Z,100664.54
2023-04-23T20:36:31.796Z,100668.18
2023-04-23T20:39:05.598Z,100663.89
2023-04-23T20:41:38.590Z,100664.23
2023-04-23T20:44:12.234Z,100663.89
2023-04-23T20:46:47.401Z,100667.09
2023-04-23T20:49:19.861Z,100663.19
2023-04-23T20:51:52.300Z,100665.67
2023-04-23T20:54:27.570Z,100665.23
2023-04-23T20:56:59.871Z,100666.52
2023-04-23T20:59:32.275Z,100667.05
2023-04-23T21:02:06.654Z,100661.91
2023-04-23T21:04:39.541Z,100662.98
2023-04-23T21:07:11.936Z,100665.52
2023-04-23T21:09:44.608Z,100668.27
2023-04-23T21:12:17.231Z,100665.06
2023-04-23T21:14:49.669Z,100654.80
2023-04-23T21:17:21.894Z,100667.45
2023-04-23T21:19:54.366Z,100668.33
2023-04-23T21:22:26.787Z,100666.83
2023-04-23T21:24:59.070Z,100669.05
2023-04-23T21:27:32.779Z,100666.05
2023-04-23T21:30:13.809Z,100665.72
2023-04-23T21:32:46.283Z,100664.23
2023-04-23T21:35:18.951Z,100663.36
2023-04-23T21:37:51.409Z,100659.89
2023-04-23T21:40:23.963Z,100663.02
2023-04-23T21:42:56.639Z,100660.77
2023-04-23T21:45:29.185Z,100662.02
2023-04-23T21:48:01.978Z,100659.30
2023-04-23T21:50:35.014Z,100662.08
2023-04-23T21:53:07.261Z,100662.44
2023-04-23T21:55:39.641Z,100659.96
2023-04-23T21:58:17.324Z,100654.89
2023-04-23T22:00:50.289Z,100653.06
2023-04-23T22:03:37.805Z,100648.95
2023-04-23T22:06:13.071Z,100646.05
2023-04-23T22:08:46.419Z,100644.91
2023-04-23T22:11:19.354Z,100641.70
2023-04-23T22:13:51.635Z,100636.44
2023-04-23T22:16:28.811Z,100635.66
2023-04-23T22:19:01.722Z,100637.29
2023-04-23T22:21:34.151Z,100631.88
2023-04-23T22:24:07.361Z,100631.09
2023-04-23T22:26:40.279Z,100627.48
2023-04-23T22:29:12.681Z,100628.75
2023-04-23T22:31:45.294Z,100622.02
2023-04-23T22:34:19.540Z,100621.34
2023-04-23T22:36:51.990Z,100619.64
2023-04-23T22:39:24.344Z,100616.65
2023-04-23T22:41:56.964Z,100613.60
2023-04-23T22:44:29.288Z,100613.02
2023-04-23T22:47:01.691Z,100615.40
2023-04-23T22:49:34.679Z,100615.63
2023-04-23T22:52:08.813Z,100615.52
2023-04-23T22:54:41.130Z,100615.27
2023-04-23T22:57:13.886Z,100614.85
2023-04-23T22:59:46.392Z,100612.17
2023-04-23T23:02:19.037Z,100615.04
2023-04-23T23:04:51.405Z,100612.34
2023-04-23T23:07:23.684Z,100612.49
2023-04-23T23:09:56.037Z,100608.55
2023-04-23T23:12:28.423Z,100606.38
2023-04-23T23:15:02.000Z,100607.15
2023-04-23T23:17:34.426Z,100604.04
2023-04-23T23:20:09.020Z,100602.23
2023-04-23T23:22:41.608Z,100597.80
2023-04-23T23:25:14.352Z,100598.89
2023-04-23T23:27:46.789Z,100594.84
2023-04-23T23:30:19.172Z,100590.32
2023-04-23T23:32:52.170Z,100590.53
2023-04-23T23:35:24.633Z,100584.39
2023-04-23T23:37:58.028Z,100579.73
2023-04-23T23:40:30.302Z,100582.13
2023-04-23T23:43:02.657Z,100584.42
2023-04-23T23:45:35.049Z,100586.00
2023-04-23T23:48:07.663Z,100586.73
2023-04-23T23:50:40.101Z,100583.11
2023-04-23T23:53:12.526Z,100578.39
2023-04-23T23:55:45.054Z,100576.11
2023-04-23T23:58:17.699Z,100574.92
